Time,TemperatureF,DewpointF,PressureIn,WindDirection,WindDirectionDegrees,WindSpeedMPH,WindSpeedGustMPH,Humidity,HourlyPrecipIn,Conditions,Clouds,dailyrainin,SoftwareType,DateUTC
2013-11-08 00:08:00,33.6,26.9,29.80,SSW,202,1.1,-999.0,76,-99.99,,,0.00,Acu-Link.com,2013-11-08 05:08:00,
2013-11-08 00:24:00,32.7,25.7,29.80,SW,225,1.1,-999.0,75,-99.99,,,0.00,Acu-Link.com,2013-11-08 05:24:00,
2013-11-08 00:39:00,32.0,25.3,29.80,SW,225,2.2,-999.0,76,-99.99,,,0.00,Acu-Link.com,2013-11-08 05:39:00,
2013-11-08 00:54:00,31.1,25.1,29.79,SE,135,1.7,-999.0,78,-99.99,,,0.00,Acu-Link.com,2013-11-08 05:54:00,
2013-11-08 01:09:00,30.7,24.4,29.79,SSE,157,2.2,-999.0,77,-99.99,,,0.00,Acu-Link.com,2013-11-08 06:09:00,
2013-11-08 01:25:00,30.2,24.2,29.79,ESE,112,3.2,-999.0,78,-99.99,,,0.00,Acu-Link.com,2013-11-08 06:25:00,
2013-11-08 01:40:00,29.7,23.7,29.80,WSW,247,2.2,-999.0,78,-99.99,,,0.00,Acu-Link.com,2013-11-08 06:40:00,
2013-11-08 01:55:00,29.5,23.8,29.80,SSE,157,0.0,-999.0,79,-99.99,,,0.00,Acu-Link.com,2013-11-08 06:55:00,
2013-11-08 02:11:00,28.8,23.4,29.80,SE,135,0.0,-999.0,80,-99.99,,,0.00,Acu-Link.com,2013-11-08 07:11:00,
2013-11-08 02:26:00,28.4,23.6,29.80,SE,135,0.0,-999.0,82,-99.99,,,0.00,Acu-Link.com,2013-11-08 07:26:00,
2013-11-08 02:41:00,27.7,23.5,29.79,SSW,202,0.0,-999.0,84,-99.99,,,0.00,Acu-Link.com,2013-11-08 07:41:00,
2013-11-08 11:02:00,40.8,31.1,29.83,NNE,22,1.7,-999.0,68,-99.99,,,0.00,Acu-Link.com,2013-11-08 16:02:00,
2013-11-08 11:17:00,39.4,29.4,29.84,SSE,157,2.7,-999.0,67,-99.99,,,0.00,Acu-Link.com,2013-11-08 16:17:00,
2013-11-08 11:32:00,38.8,29.9,29.83,West,270,1.7,-999.0,70,-99.99,,,0.00,Acu-Link.com,2013-11-08 16:32:00,
2013-11-08 11:47:00,38.7,30.8,29.83,West,270,1.7,-999.0,73,-99.99,,,0.00,Acu-Link.com,2013-11-08 16:47:00,
2013-11-08 12:03:00,39.2,31.3,29.83,South,180,0.0,-999.0,73,-99.99,,,0.00,Acu-Link.com,2013-11-08 17:03:00,
2013-11-08 12:18:00,39.0,30.8,29.82,NNE,22,0.0,-999.0,72,-99.99,,,0.00,Acu-Link.com,2013-11-08 17:18:00,
2013-11-08 12:33:00,39.7,30.7,29.81,SW,225,2.7,-999.0,70,-99.99,,,0.00,Acu-Link.com,2013-11-08 17:33:00,
2013-11-08 12:49:00,39.7,31.4,29.82,SSW,202,3.2,-999.0,72,-99.99,,,0.00,Acu-Link.com,2013-11-08 17:49:00,
2013-11-08 13:04:00,37.9,32.3,29.83,ESE,112,1.1,-999.0,80,-99.99,,,0.00,Acu-Link.com,2013-11-08 18:04:00,
2013-11-08 13:19:00,37.4,33.3,29.84,SE,135,1.1,-999.0,85,-99.99,,,0.00,Acu-Link.com,2013-11-08 18:19:00,
2013-11-08 13:34:00,37.2,33.7,29.84,SW,225,2.2,-999.0,87,-99.99,,,0.00,Acu-Link.com,2013-11-08 18:34:00,
2013-11-08 13:49:00,35.6,32.1,29.84,NE,45,1.1,-999.0,87,-99.99,,,0.00,Acu-Link.com,2013-11-08 18:49:00,
2013-11-08 14:04:00,35.8,32.3,29.85,ESE,112,0.0,-999.0,87,-99.99,,,0.00,Acu-Link.com,2013-11-08 19:04:00,
2013-11-08 14:19:00,36.0,32.8,29.86,West,270,1.7,-999.0,88,-99.99,,,0.00,Acu-Link.com,2013-11-08 19:19:00,
2013-11-08 14:34:00,36.5,32.7,29.86,South,180,1.7,-999.0,86,-99.99,,,0.00,Acu-Link.com,2013-11-08 19:34:00,
2013-11-08 14:50:00,34.5,30.8,29.87,South,180,1.1,-999.0,86,-99.99,,,0.00,Acu-Link.com,2013-11-08 19:50:00,
2013-11-08 15:05:00,34.3,31.1,29.88,SSE,157,1.1,-999.0,88,-99.99,,,0.00,Acu-Link.com,2013-11-08 20:05:00,
2013-11-08 15:20:00,33.8,30.1,29.88,NNW,337,1.7,-999.0,86,-99.99,,,0.01,Acu-Link.com,2013-11-08 20:20:00,
2013-11-08 15:35:00,33.4,30.0,29.90,SSW,202,4.7,-999.0,87,-99.99,,,0.01,Acu-Link.com,2013-11-08 20:35:00,
2013-11-08 15:50:00,33.1,28.8,29.90,SW,225,4.7,-999.0,84,-99.99,,,0.01,Acu-Link.com,2013-11-08 20:50:00,
2013-11-08 16:05:00,32.9,28.0,29.90,SW,225,6.8,-999.0,82,-99.99,,,0.01,Acu-Link.com,2013-11-08 21:05:00,
2013-11-08 16:20:00,32.5,27.6,29.91,NNE,22,0.0,-999.0,82,-99.99,,,0.01,Acu-Link.com,2013-11-08 21:20:00,
2013-11-08 16:36:00,32.0,27.4,29.91,NNE,22,1.7,-999.0,83,-99.99,,,0.01,Acu-Link.com,2013-11-08 21:36:00,
2013-11-08 16:51:00,31.3,26.5,29.93,NW,315,2.2,-999.0,82,-99.99,,,0.01,Acu-Link.com,2013-11-08 21:51:00,
2013-11-08 17:06:00,31.1,26.3,29.93,SSE,157,2.7,-999.0,82,-99.99,,,0.01,Acu-Link.com,2013-11-08 22:06:00,
2013-11-08 17:21:00,30.9,26.1,29.94,South,180,2.7,-999.0,82,-99.99,,,0.01,Acu-Link.com,2013-11-08 22:21:00,
2013-11-08 17:36:00,31.1,26.3,29.94,SW,225,3.7,-999.0,82,-99.99,,,0.01,Acu-Link.com,2013-11-08 22:36:00,
2013-11-08 17:52:00,31.3,26.2,29.96,SE,135,3.7,-999.0,81,-99.99,,,0.01,Acu-Link.com,2013-11-08 22:52:00,
2013-11-08 18:07:00,31.5,26.1,29.96,ENE,67,0.0,-999.0,80,-99.99,,,0.01,Acu-Link.com,2013-11-08 23:07:00,
2013-11-08 18:22:00,31.5,26.1,29.96,West,270,2.7,-999.0,80,-99.99,,,0.01,Acu-Link.com,2013-11-08 23:22:00,
2013-11-08 18:37:00,31.8,26.0,29.97,ENE,67,1.7,-999.0,79,-99.99,,,0.01,Acu-Link.com,2013-11-08 23:37:00,
2013-11-08 18:52:00,31.8,25.7,29.96,West,270,1.1,-999.0,78,-99.99,,,0.01,Acu-Link.com,2013-11-08 23:52:00,
2013-11-08 19:08:00,32.0,25.6,29.97,NE,45,1.7,-999.0,77,-99.99,,,0.01,Acu-Link.com,2013-11-09 00:08:00,
2013-11-08 19:23:00,32.2,25.5,29.96,South,180,3.7,-999.0,76,-99.99,,,0.01,Acu-Link.com,2013-11-09 00:23:00,
2013-11-08 19:38:00,32.2,25.5,29.96,ESE,112,0.0,-999.0,76,-99.99,,,0.01,Acu-Link.com,2013-11-09 00:38:00,
2013-11-08 19:53:00,32.4,25.4,29.96,West,270,2.7,-999.0,75,-99.99,,,0.01,Acu-Link.com,2013-11-09 00:53:00,
2013-11-08 20:08:00,32.4,24.7,29.96,West,270,1.1,-999.0,73,-99.99,,,0.01,Acu-Link.com,2013-11-09 01:08:00,
2013-11-08 20:24:00,32.4,24.7,29.97,ESE,112,1.7,-999.0,73,-99.99,,,0.01,Acu-Link.com,2013-11-09 01:24:00,
2013-11-08 20:39:00,32.4,24.7,29.98,SSW,202,2.2,-999.0,73,-99.99,,,0.01,Acu-Link.com,2013-11-09 01:39:00,
2013-11-08 21:09:00,32.4,25.1,29.98,WNW,292,0.0,-999.0,74,-99.99,,,0.01,Acu-Link.com,2013-11-09 02:09:00,
2013-11-08 21:24:00,32.4,25.1,29.99,NW,315,1.7,-999.0,74,-99.99,,,0.01,Acu-Link.com,2013-11-09 02:24:00,
2013-11-08 21:40:00,32.4,25.4,29.99,South,180,4.2,-999.0,75,-99.99,,,0.01,Acu-Link.com,2013-11-09 02:40:00,
2013-11-08 21:55:00,32.4,24.7,29.99,SE,135,2.7,-999.0,73,-99.99,,,0.01,Acu-Link.com,2013-11-09 02:55:00,
2013-11-08 22:10:00,32.4,24.4,29.99,West,270,1.7,-999.0,72,-99.99,,,0.01,Acu-Link.com,2013-11-09 03:10:00,
2013-11-08 22:25:00,32.4,24.4,29.99,SW,225,1.7,-999.0,72,-99.99,,,0.01,Acu-Link.com,2013-11-09 03:25:00,
2013-11-08 22:40:00,32.2,23.9,29.99,SE,135,2.2,-999.0,71,-99.99,,,0.01,Acu-Link.com,2013-11-09 03:40:00,
2013-11-08 22:55:00,32.2,23.9,29.99,West,270,2.7,-999.0,71,-99.99,,,0.01,Acu-Link.com,2013-11-09 03:55:00,
2013-11-08 23:10:00,32.2,23.9,30.00,South,180,2.2,-999.0,71,-99.99,,,0.01,Acu-Link.com,2013-11-09 04:10:00,
2013-11-08 23:26:00,32.2,23.5,30.00,ESE,112,2.2,-999.0,70,-99.99,,,0.01,Acu-Link.com,2013-11-09 04:26:00,
2013-11-08 23:41:00,32.2,23.9,30.00,South,180,1.7,-999.0,71,-99.99,,,0.01,Acu-Link.com,2013-11-09 04:41:00,
2013-11-08 23:56:00,32.2,24.2,30.01,WSW,247,3.2,-999.0,72,-99.99,,,0.01,Acu-Link.com,2013-11-09 04:56:00,